createdAt,value
2022-10-28T00:00:56.496Z,9.70
2022-10-28T00:03:23.171Z,9.57
2022-10-28T00:05:49.754Z,9.73
2022-10-28T00:08:16.342Z,9.77
2022-10-28T00:10:42.994Z,10.07
2022-10-28T00:13:09.579Z,10.30
2022-10-28T00:15:36.117Z,10.20
2022-10-28T00:18:03.286Z,9.07
2022-10-28T00:20:31.961Z,9.05
2022-10-28T00:22:58.568Z,9.75
2022-10-28T00:25:25.494Z,9.25
2022-10-28T00:27:52.961Z,9.18
2022-10-28T00:30:20.381Z,10.73
2022-10-28T00:32:47.188Z,8.68
2022-10-28T00:35:13.953Z,7.88
2022-10-28T00:37:40.819Z,8.48
2022-10-28T00:40:08.644Z,7.55
2022-10-28T00:42:35.214Z,8.15
2022-10-28T00:45:02.845Z,8.35
2022-10-28T00:47:41.667Z,7.65
2022-10-28T00:50:33.348Z,7.55
2022-10-28T00:53:04.865Z,7.40
2022-10-28T00:55:32.966Z,7.15
2022-10-28T00:58:01.155Z,6.82
2022-10-28T01:00:28.090Z,6.78
2022-10-28T01:02:55.565Z,7.43
2022-10-28T01:05:26.895Z,6.47
2022-10-28T01:07:57.440Z,6.05
2022-10-28T01:10:33.768Z,7.03
2022-10-28T01:13:06.379Z,6.97
2022-10-28T01:15:46.912Z,7.85
2022-10-28T01:18:28.544Z,8.18
2022-10-28T01:21:33.028Z,8.02
2022-10-28T01:24:27.970Z,7.30
2022-10-28T01:27:23.807Z,7.38
2022-10-28T01:30:16.634Z,6.35
2022-10-28T01:33:06.555Z,7.32
2022-10-28T01:36:11.632Z,6.47
2022-10-28T01:38:53.183Z,7.80
2022-10-28T01:41:34.943Z,6.68
2022-10-28T01:44:19.147Z,5.30
2022-10-28T01:47:12.163Z,6.80
2022-10-28T01:49:47.378Z,5.38
2022-10-28T01:52:16.897Z,6.47
2022-10-28T01:54:48.936Z,6.68
2022-10-28T01:57:18.355Z,6.82
2022-10-28T01:59:47.318Z,6.53
2022-10-28T02:02:19.261Z,6.20
2022-10-28T02:04:45.843Z,6.13
2022-10-28T02:07:13.386Z,6.03
2022-10-28T02:10:04.917Z,5.55
2022-10-28T02:12:35.536Z,5.47
2022-10-28T02:15:28.715Z,5.88
2022-10-28T02:18:11.690Z,5.32
2022-10-28T02:20:45.009Z,4.90
2022-10-28T02:23:28.420Z,5.78
2022-10-28T02:26:08.038Z,5.55
2022-10-28T02:28:49.101Z,5.78
2022-10-28T02:31:38.128Z,5.82
2022-10-28T02:34:10.057Z,5.47
2022-10-28T02:36:43.519Z,5.03
2022-10-28T02:39:11.555Z,5.72
2022-10-28T02:41:48.804Z,6.30
2022-10-28T02:44:22.218Z,5.50
2022-10-28T02:46:51.136Z,6.53
2022-10-28T02:49:17.685Z,5.45
2022-10-28T02:52:00.888Z,6.00
2022-10-28T02:54:49.602Z,6.15
2022-10-28T02:57:19.719Z,6.45
2022-10-28T03:00:01.396Z,7.90
2022-10-28T03:02:28.755Z,7.57
2022-10-28T03:04:58.703Z,7.72
2022-10-28T03:07:25.594Z,8.20
2022-10-28T03:09:52.298Z,7.55
2022-10-28T03:12:18.931Z,8.45
2022-10-28T03:14:45.506Z,7.30
2022-10-28T03:17:14.995Z,8.07
2022-10-28T03:19:42.789Z,8.05
2022-10-28T03:22:10.105Z,9.50
2022-10-28T03:24:36.851Z,9.30
2022-10-28T03:27:07.224Z,10.60
2022-10-28T03:29:33.776Z,8.82
2022-10-28T03:32:00.515Z,9.35
2022-10-28T03:34:27.090Z,8.38
2022-10-28T03:36:53.629Z,8.68
2022-10-28T03:39:22.321Z,8.60
2022-10-28T03:41:48.904Z,7.97
2022-10-28T03:44:15.463Z,8.82
2022-10-28T03:46:42.103Z,7.65
2022-10-28T03:49:08.672Z,8.40
2022-10-28T03:51:39.485Z,8.27
2022-10-28T03:54:06.171Z,8.02
2022-10-28T03:56:32.804Z,9.30
2022-10-28T03:58:59.628Z,8.15
2022-10-28T04:01:27.014Z,7.57
2022-10-28T04:03:53.839Z,8.20
2022-10-28T04:06:20.383Z,8.27
2022-10-28T04:08:47.022Z,8.32
2022-10-28T04:11:13.606Z,7.72
2022-10-28T04:13:40.164Z,8.95
2022-10-28T04:16:07.117Z,8.23
2022-10-28T04:18:35.371Z,9.02
2022-10-28T04:21:02.631Z,7.65
2022-10-28T04:23:29.346Z,8.20
2022-10-28T04:25:56.423Z,7.38
2022-10-28T04:28:26.683Z,7.25
2022-10-28T04:30:53.471Z,6.85
2022-10-28T04:33:20.029Z,8.05
2022-10-28T04:35:46.708Z,8.52
2022-10-28T04:38:14.618Z,8.77
2022-10-28T04:40:41.528Z,8.63
2022-10-28T04:43:09.983Z,9.10
2022-10-28T04:45:37.554Z,9.18
2022-10-28T04:48:04.349Z,7.47
2022-10-28T04:50:32.303Z,7.72
2022-10-28T04:52:58.883Z,8.45
2022-10-28T04:55:25.484Z,9.13
2022-10-28T04:57:56.599Z,8.77
2022-10-28T05:02:51.296Z,8.73
2022-10-28T05:05:18.312Z,9.48
2022-10-28T05:07:45.873Z,11.38
2022-10-28T05:10:15.443Z,13.40
2022-10-28T05:12:43.807Z,13.15
2022-10-28T05:15:11.941Z,13.00
2022-10-28T05:17:40.369Z,11.25
2022-10-28T05:20:08.590Z,10.65
2022-10-28T05:22:35.216Z,10.13
2022-10-28T05:25:01.963Z,9.50
2022-10-28T05:27:28.545Z,9.65
2022-10-28T05:29:55.289Z,9.50
2022-10-28T05:32:22.079Z,9.75
2022-10-28T05:34:49.486Z,10.25
2022-10-28T05:37:16.135Z,10.45
2022-10-28T05:39:42.699Z,10.15
2022-10-28T05:42:09.271Z,9.93
2022-10-28T05:44:35.909Z,7.82
2022-10-28T05:47:03.385Z,5.55
2022-10-28T05:49:29.916Z,6.47
2022-10-28T05:51:56.487Z,6.47
2022-10-28T05:54:23.151Z,7.55
2022-10-28T05:56:49.856Z,6.20
2022-10-28T05:59:16.421Z,7.75
2022-10-28T06:01:43.571Z,9.30
2022-10-28T06:04:10.431Z,9.45
2022-10-28T06:06:37.538Z,7.50
2022-10-28T06:09:04.314Z,8.32
2022-10-28T06:11:29.348Z,6.82
2022-10-28T06:13:55.939Z,6.70
2022-10-28T06:16:22.517Z,5.85
2022-10-28T06:18:49.321Z,5.97
2022-10-28T06:21:16.444Z,5.50
2022-10-28T06:23:45.087Z,7.10
2022-10-28T06:26:12.976Z,8.07
2022-10-28T06:28:39.610Z,13.30
2022-10-28T06:31:07.832Z,13.93
2022-10-28T06:33:35.581Z,10.63
2022-10-28T06:36:02.537Z,12.07
2022-10-28T06:38:29.887Z,13.63
2022-10-28T06:40:58.133Z,10.32
2022-10-28T06:43:24.699Z,10.38
2022-10-28T06:45:55.118Z,10.48
2022-10-28T06:48:27.707Z,9.65
2022-10-28T06:53:25.432Z,7.95
2022-10-28T06:55:53.997Z,6.75
2022-10-28T06:58:20.620Z,6.95
2022-10-28T07:00:47.634Z,6.43
2022-10-28T07:03:14.509Z,5.35
2022-10-28T07:05:41.194Z,5.95
2022-10-28T07:08:09.333Z,6.75
2022-10-28T07:10:35.927Z,6.40
2022-10-28T07:13:02.590Z,7.68
2022-10-28T07:15:29.179Z,10.25
2022-10-28T07:17:58.514Z,10.40
2022-10-28T07:20:27.281Z,12.27
2022-10-28T07:23:03.360Z,10.85
2022-10-28T07:25:31.736Z,14.00
2022-10-28T07:27:59.509Z,13.40
2022-10-28T07:30:27.351Z,13.45
2022-10-28T07:32:55.558Z,14.75
2022-10-28T07:35:22.511Z,13.13
2022-10-28T07:37:49.100Z,13.77
2022-10-28T07:40:15.776Z,14.23
2022-10-28T07:42:42.389Z,12.43
2022-10-28T07:45:09.310Z,12.55
2022-10-28T07:47:37.551Z,13.18
2022-10-28T07:50:06.283Z,14.15
2022-10-28T07:52:33.699Z,11.93
2022-10-28T07:55:00.397Z,11.98
2022-10-28T07:57:28.088Z,12.45
2022-10-28T07:59:54.648Z,12.13
2022-10-28T08:02:23.737Z,11.77
2022-10-28T08:04:50.833Z,12.40
2022-10-28T08:07:20.049Z,11.52
2022-10-28T08:09:47.324Z,11.90
2022-10-28T08:12:15.751Z,13.07
2022-10-28T08:14:42.706Z,12.55
2022-10-28T08:17:09.969Z,12.90
2022-10-28T08:19:38.863Z,13.52
2022-10-28T08:22:05.469Z,12.80
2022-10-28T08:24:32.099Z,12.88
2022-10-28T08:26:58.751Z,11.73
2022-10-28T08:29:29.102Z,11.30
2022-10-28T08:31:57.826Z,10.05
2022-10-28T08:34:29.699Z,10.35
2022-10-28T08:36:57.710Z,9.23
2022-10-28T08:39:24.625Z,8.90
2022-10-28T08:42:17.307Z,8.48
2022-10-28T08:45:17.787Z,8.13
2022-10-28T08:47:55.782Z,9.32
2022-10-28T08:50:25.600Z,8.73
2022-10-28T08:53:00.573Z,9.25
2022-10-28T08:55:33.390Z,9.85
2022-10-28T08:58:07.428Z,8.68
2022-10-28T09:00:34.722Z,9.05
2022-10-28T09:03:18.884Z,10.23
2022-10-28T09:05:49.906Z,9.75
2022-10-28T09:08:41.413Z,8.75
2022-10-28T09:11:37.081Z,8.18
2022-10-28T09:14:22.493Z,7.50
2022-10-28T09:17:13.502Z,6.50
2022-10-28T09:22:45.275Z,6.45
2022-10-28T09:25:48.837Z,6.95
2022-10-28T09:28:35.080Z,5.40
2022-10-28T09:31:09.956Z,6.25
2022-10-28T09:33:48.582Z,5.18
2022-10-28T09:36:35.013Z,5.25
2022-10-28T09:39:04.531Z,5.63
2022-10-28T09:41:38.920Z,5.43
2022-10-28T09:44:29.109Z,6.63
2022-10-28T09:47:00.353Z,5.82
2022-10-28T09:49:36.487Z,5.43
2022-10-28T09:52:10.978Z,6.05
2022-10-28T09:54:48.294Z,4.97
2022-10-28T09:57:17.247Z,6.80
2022-10-28T09:59:44.561Z,7.10
2022-10-28T10:02:33.319Z,7.13
2022-10-28T10:05:01.955Z,6.30
2022-10-28T10:07:40.201Z,5.90
2022-10-28T10:10:22.281Z,8.50
2022-10-28T10:12:55.960Z,6.90
2022-10-28T10:15:45.621Z,7.05
2022-10-28T10:18:27.078Z,6.43
2022-10-28T10:20:57.551Z,5.95
2022-10-28T10:23:36.986Z,5.85
2022-10-28T10:26:11.203Z,6.47
2022-10-28T10:28:45.476Z,6.30
2022-10-28T10:31:22.215Z,6.28
2022-10-28T10:33:58.861Z,5.93
2022-10-28T10:36:28.986Z,6.55
2022-10-28T10:39:20.282Z,6.40
2022-10-28T10:41:46.860Z,6.70
2022-10-28T10:44:24.529Z,6.72
2022-10-28T10:46:58.886Z,7.55
2022-10-28T10:49:28.798Z,6.45
2022-10-28T10:51:57.293Z,5.78
2022-10-28T10:54:26.581Z,7.00
2022-10-28T10:56:53.809Z,6.85
2022-10-28T10:59:26.403Z,6.47
2022-10-28T11:01:54.528Z,7.03
2022-10-28T11:04:23.581Z,7.47
2022-10-28T11:06:53.424Z,7.40
2022-10-28T11:09:32.246Z,6.38
2022-10-28T11:11:58.894Z,5.60
2022-10-28T11:14:32.907Z,6.80
2022-10-28T11:17:02.281Z,6.22
2022-10-28T11:19:35.470Z,5.90
2022-10-28T11:22:30.788Z,6.30
2022-10-28T11:25:06.434Z,6.80
2022-10-28T11:27:42.925Z,7.75
2022-10-28T11:30:15.775Z,7.03
2022-10-28T11:33:08.284Z,6.13
2022-10-28T11:35:52.392Z,6.45
2022-10-28T11:38:49.546Z,6.00
2022-10-28T11:41:34.278Z,8.27
2022-10-28T11:44:05.095Z,6.18
2022-10-28T11:46:48.194Z,6.78
2022-10-28T11:50:00.076Z,7.90
2022-10-28T11:52:32.441Z,6.80
2022-10-28T11:55:15.515Z,8.00
2022-10-28T11:57:48.707Z,6.70
2022-10-28T12:00:44.942Z,6.03
2022-10-28T12:03:30.282Z,5.70
2022-10-28T12:06:24.390Z,6.53
2022-10-28T12:09:10.131Z,6.28
2022-10-28T12:12:14.547Z,6.53
2022-10-28T12:15:15.277Z,6.13
2022-10-28T12:20:33.643Z,7.53
2022-10-28T12:23:12.997Z,6.55
2022-10-28T12:25:44.427Z,5.68
2022-10-28T12:28:24.302Z,6.10
2022-10-28T12:30:52.964Z,6.13
2022-10-28T12:33:22.832Z,6.45
2022-10-28T12:36:10.011Z,6.75
2022-10-28T12:38:55.920Z,8.02
2022-10-28T12:41:28.505Z,7.20
2022-10-28T12:44:18.767Z,8.35
2022-10-28T12:49:35.074Z,6.60
2022-10-28T12:52:13.324Z,6.28
2022-10-28T12:54:53.662Z,7.10
2022-10-28T12:57:23.826Z,6.82
2022-10-28T13:00:07.612Z,7.53
2022-10-28T13:03:00.491Z,5.70
2022-10-28T13:05:35.307Z,7.28
2022-10-28T13:08:27.183Z,6.90
2022-10-28T13:11:02.834Z,5.70
2022-10-28T13:14:03.529Z,7.50
2022-10-28T13:19:28.539Z,5.95
2022-10-28T13:22:04.238Z,7.18
2022-10-28T13:24:47.857Z,5.85
2022-10-28T13:27:15.485Z,7.20
2022-10-28T13:29:44.090Z,6.55
2022-10-28T13:32:32.763Z,7.03
2022-10-28T13:35:22.561Z,6.55
2022-10-28T13:37:51.708Z,7.43
2022-10-28T13:40:43.407Z,6.13
2022-10-28T13:43:20.682Z,6.75
2022-10-28T13:45:55.707Z,7.00
2022-10-28T13:48:45.080Z,7.28
2022-10-28T13:51:11.644Z,7.18
2022-10-28T13:53:47.290Z,6.05
2022-10-28T13:56:36.802Z,6.13
2022-10-28T13:59:14.428Z,6.22
2022-10-28T14:01:56.494Z,7.57
2022-10-28T14:04:34.418Z,7.20
2022-10-28T14:07:03.364Z,6.88
2022-10-28T14:09:32.866Z,6.45
2022-10-28T14:12:14.805Z,6.30
2022-10-28T14:15:06.589Z,7.25
2022-10-28T14:17:36.138Z,7.15
2022-10-28T14:20:06.904Z,6.28
2022-10-28T14:25:23.812Z,7.10
2022-10-28T14:27:50.470Z,6.68
2022-10-28T14:30:21.689Z,6.32
2022-10-28T14:33:01.193Z,7.68
2022-10-28T14:35:41.366Z,6.45
2022-10-28T14:38:50.273Z,7.63
2022-10-28T14:41:35.753Z,6.32
2022-10-28T14:44:12.331Z,5.72
2022-10-28T14:46:38.905Z,7.40
2022-10-28T14:49:14.449Z,5.93
2022-10-28T15:10:35.463Z,7.35
2022-10-28T15:13:03.676Z,6.03
2022-10-28T15:15:32.722Z,5.80
2022-10-28T15:18:02.833Z,7.90
2022-10-28T15:20:30.993Z,6.07
2022-10-28T15:23:20.662Z,5.15
2022-10-28T15:26:05.056Z,19.45
2022-10-28T15:28:31.731Z,9.27
2022-10-28T15:30:58.362Z,8.05
2022-10-28T15:33:31.024Z,8.63
2022-10-28T15:36:27.159Z,10.82
2022-10-28T15:39:15.332Z,22.50
2022-10-28T15:41:43.087Z,8.57
2022-10-28T15:44:30.649Z,8.82
2022-10-28T15:46:58.831Z,13.60
2022-10-28T15:49:38.222Z,11.20
2022-10-28T15:52:17.030Z,12.55
2022-10-28T15:55:01.003Z,10.93
2022-10-28T15:57:45.950Z,10.25
2022-10-28T16:00:30.960Z,9.40
2022-10-28T16:03:02.516Z,8.02
2022-10-28T16:05:43.022Z,7.35
2022-10-28T16:08:21.462Z,7.85
2022-10-28T16:10:54.255Z,6.45
2022-10-28T16:13:26.266Z,7.72
2022-10-28T16:15:58.997Z,7.97
2022-10-28T16:18:27.919Z,8.60
2022-10-28T16:20:55.999Z,6.68
2022-10-28T16:23:25.540Z,9.10
2022-10-28T16:25:52.293Z,8.23
2022-10-28T16:28:24.752Z,7.82
2022-10-28T16:30:56.570Z,7.50
2022-10-28T16:33:32.044Z,7.82
2022-10-28T16:35:58.854Z,7.03
2022-10-28T16:38:25.506Z,7.38
2022-10-28T16:40:53.119Z,8.60
2022-10-28T16:43:22.798Z,6.80
2022-10-28T16:45:50.801Z,6.82
2022-10-28T16:48:19.459Z,6.53
2022-10-28T16:50:51.814Z,7.57
2022-10-28T16:53:18.915Z,7.00
2022-10-28T16:55:45.487Z,7.85
2022-10-28T16:58:12.814Z,6.70
2022-10-28T17:00:40.200Z,7.22
2022-10-28T17:03:07.050Z,7.82
2022-10-28T17:05:34.017Z,7.22
2022-10-28T17:08:02.416Z,7.40
2022-10-28T17:10:31.284Z,8.25
2022-10-28T17:12:58.121Z,8.27
2022-10-28T17:15:24.819Z,7.95
2022-10-28T17:17:52.654Z,8.30
2022-10-28T17:20:20.485Z,8.38
2022-10-28T17:22:47.457Z,7.93
2022-10-28T17:25:14.459Z,8.85
2022-10-28T17:27:42.222Z,7.70
2022-10-28T17:30:09.385Z,8.05
2022-10-28T17:32:36.033Z,7.95
2022-10-28T17:35:02.686Z,7.22
2022-10-28T17:37:29.259Z,9.02
2022-10-28T17:39:57.027Z,13.40
2022-10-28T17:42:24.091Z,8.82
2022-10-28T17:44:50.680Z,10.38
2022-10-28T17:47:17.368Z,8.55
2022-10-28T17:49:43.945Z,8.80
2022-10-28T17:52:10.497Z,9.13
2022-10-28T17:54:37.104Z,10.00
2022-10-28T17:57:03.771Z,9.30
2022-10-28T17:59:30.354Z,7.65
2022-10-28T18:01:57.119Z,7.90
2022-10-28T18:04:26.364Z,7.90
2022-10-28T18:06:54.584Z,8.15
2022-10-28T18:09:21.341Z,8.25
2022-10-28T18:11:48.563Z,8.18
2022-10-28T18:14:15.917Z,8.48
2022-10-28T18:16:42.706Z,9.45
2022-10-28T18:19:10.220Z,9.38
2022-10-28T18:21:36.802Z,8.00
2022-10-28T18:24:04.003Z,8.82
2022-10-28T18:26:35.380Z,7.32
2022-10-28T18:29:05.383Z,7.63
2022-10-28T18:31:33.385Z,7.68
2022-10-28T18:34:01.118Z,7.55
2022-10-28T18:36:30.719Z,7.45
2022-10-28T18:38:57.848Z,8.20
2022-10-28T18:41:26.845Z,9.30
2022-10-28T18:43:58.364Z,7.97
2022-10-28T18:46:28.366Z,9.27
2022-10-28T18:48:58.094Z,8.80
2022-10-28T18:51:24.917Z,8.85
2022-10-28T18:53:52.079Z,8.68
2022-10-28T18:56:20.816Z,9.32
2022-10-28T18:58:52.321Z,8.30
2022-10-28T19:01:24.557Z,8.75
2022-10-28T19:03:59.179Z,8.55
2022-10-28T19:06:29.796Z,8.52
2022-10-28T19:08:58.854Z,7.72
2022-10-28T19:11:30.167Z,8.40
2022-10-28T19:13:58.867Z,8.05
2022-10-28T19:16:26.681Z,7.70
2022-10-28T19:18:57.436Z,7.55
2022-10-28T19:21:25.077Z,8.48
2022-10-28T19:23:51.674Z,9.80
2022-10-28T19:26:18.847Z,10.98
2022-10-28T19:28:47.238Z,12.00
2022-10-28T19:31:17.194Z,16.10
2022-10-28T19:33:45.429Z,12.48
2022-10-28T19:36:18.555Z,10.00
2022-10-28T19:38:46.714Z,9.20
2022-10-28T19:41:18.835Z,9.82
2022-10-28T19:43:46.494Z,8.63
2022-10-28T19:46:18.573Z,9.95
2022-10-28T19:48:47.054Z,8.02
2022-10-28T19:51:20.096Z,7.82
2022-10-28T19:53:51.364Z,8.18
2022-10-28T19:56:19.559Z,10.05
2022-10-28T19:58:49.092Z,15.63
2022-10-28T20:01:16.776Z,20.38
2022-10-28T20:03:48.982Z,24.05
2022-10-28T20:06:17.961Z,20.50
2022-10-28T20:08:46.544Z,25.38
2022-10-28T20:11:18.892Z,28.52
2022-10-28T20:13:52.697Z,26.83
2022-10-28T20:16:19.581Z,25.60
2022-10-28T20:18:46.396Z,24.00
2022-10-28T20:21:15.656Z,22.58
2022-10-28T20:23:46.640Z,21.95
2022-10-28T20:28:40.160Z,22.58
2022-10-28T20:31:12.299Z,21.20
2022-10-28T20:33:41.016Z,21.30
2022-10-28T20:36:36.125Z,21.40
2022-10-28T20:39:04.544Z,20.30
2022-10-28T20:41:33.265Z,20.27
2022-10-28T20:44:00.253Z,19.20
2022-10-28T20:46:27.150Z,21.65
2022-10-28T20:48:54.350Z,20.02
2022-10-28T20:51:21.589Z,20.20
2022-10-28T20:53:48.253Z,18.38
2022-10-28T20:56:20.055Z,21.42
2022-10-28T20:58:47.116Z,19.60
2022-10-28T21:01:15.583Z,19.88
2022-10-28T21:03:43.956Z,21.58
2022-10-28T21:06:11.461Z,19.80
2022-10-28T21:08:38.393Z,21.45
2022-10-28T21:11:06.539Z,19.83
2022-10-28T21:13:33.819Z,21.20
2022-10-28T21:16:05.576Z,22.95
2022-10-28T21:18:32.616Z,20.80
2022-10-28T21:21:00.352Z,20.67
2022-10-28T21:23:27.945Z,20.73
2022-10-28T21:25:56.493Z,18.83
2022-10-28T21:28:23.490Z,17.58
2022-10-28T21:30:50.123Z,17.92
2022-10-28T21:33:18.859Z,14.90
2022-10-28T21:35:54.312Z,11.27
2022-10-28T21:38:20.865Z,11.82
2022-10-28T21:40:47.434Z,15.02
2022-10-28T21:43:14.174Z,14.75
2022-10-28T21:45:40.732Z,17.80
2022-10-28T21:48:07.270Z,15.50
2022-10-28T21:50:34.267Z,14.75
2022-10-28T21:53:03.930Z,16.38
2022-10-28T21:55:41.992Z,15.17
2022-10-28T21:58:13.623Z,15.40
2022-10-28T22:00:40.251Z,13.15
2022-10-28T22:03:06.785Z,15.48
2022-10-28T22:05:33.421Z,16.58
2022-10-28T22:08:03.023Z,16.48
2022-10-28T22:10:31.483Z,19.20
2022-10-28T22:12:58.081Z,15.93
2022-10-28T22:15:24.644Z,16.55
2022-10-28T22:17:51.234Z,16.35
2022-10-28T22:20:18.153Z,16.95
2022-10-28T22:22:44.732Z,16.05
2022-10-28T22:25:11.353Z,15.57
2022-10-28T22:27:38.140Z,15.35
2022-10-28T22:30:05.253Z,14.90
2022-10-28T22:32:31.796Z,13.88
2022-10-28T22:34:58.367Z,15.27
2022-10-28T22:37:24.913Z,13.63
2022-10-28T22:39:51.447Z,13.60
2022-10-28T22:42:18.028Z,12.35
2022-10-28T22:44:44.590Z,12.57
2022-10-28T22:47:11.228Z,13.02
2022-10-28T22:49:37.784Z,12.82
2022-10-28T22:52:04.371Z,12.95
2022-10-28T22:54:30.911Z,12.23
2022-10-28T22:56:57.477Z,12.48
2022-10-28T22:59:24.059Z,13.23
2022-10-28T23:01:52.021Z,11.85
2022-10-28T23:04:18.643Z,11.80
2022-10-28T23:06:45.222Z,13.05
2022-10-28T23:09:11.743Z,14.40
2022-10-28T23:11:38.375Z,12.48
2022-10-28T23:14:05.003Z,13.10
2022-10-28T23:16:31.536Z,11.75
2022-10-28T23:19:00.816Z,12.10
2022-10-28T23:21:27.486Z,9.77
2022-10-28T23:23:59.466Z,9.27
2022-10-28T23:26:28.018Z,9.13
2022-10-28T23:28:56.935Z,9.10
2022-10-28T23:31:24.153Z,10.75
2022-10-28T23:33:51.025Z,9.55
2022-10-28T23:36:18.010Z,10.02
2022-10-28T23:38:44.654Z,11.57
2022-10-28T23:41:15.718Z,10.77
2022-10-28T23:46:10.243Z,10.73
2022-10-28T23:48:36.838Z,10.18
2022-10-28T23:51:03.625Z,12.68
2022-10-28T23:53:30.910Z,10.98
2022-10-28T23:55:57.938Z,11.63
2022-10-28T23:58:24.762Z,11.13
